sensor_id;sensor_type;location;lat;lon;timestamp;P1;durP1;ratioP1;P2;durP2;ratioP2
79693;SDS011;69165;52.714;13.200;2023-04-19T05:02:09;11.43;;;5.47;;
79693;SDS011;69165;52.714;13.200;2023-04-19T05:04:11;7.30;;;4.67;;
79693;SDS011;69165;52.714;13.200;2023-04-19T05:06:12;9.20;;;4.37;;
79693;SDS011;69165;52.714;13.200;2023-04-19T05:08:14;4.20;;;3.80;;
79693;SDS011;69165;52.714;13.200;2023-04-19T05:10:16;5.70;;;3.90;;
79693;SDS011;69165;52.714;13.200;2023-04-19T05:12:17;45.03;;;4.60;;
79693;SDS011;69165;52.714;13.200;2023-04-19T05:14:20;4.60;;;3.50;;
79693;SDS011;69165;52.714;13.200;2023-04-19T05:16:21;6.20;;;3.70;;
79693;SDS011;69165;52.714;13.200;2023-04-19T05:18:23;7.93;;;4.67;;
79693;SDS011;69165;52.714;13.200;2023-04-19T05:20:24;7.33;;;3.57;;
79693;SDS011;69165;52.714;13.200;2023-04-19T05:22:26;11.17;;;4.20;;
79693;SDS011;69165;52.714;13.200;2023-04-19T05:24:28;17.97;;;4.50;;
79693;SDS011;69165;52.714;13.200;2023-04-19T05:26:29;9.83;;;4.27;;
79693;SDS011;69165;52.714;13.200;2023-04-19T05:28:31;10.10;;;3.40;;
79693;SDS011;69165;52.714;13.200;2023-04-19T05:30:32;16.30;;;3.83;;
79693;SDS011;69165;52.714;13.200;2023-04-19T05:32:34;4.33;;;3.77;;
79693;SDS011;69165;52.714;13.200;2023-04-19T05:34:36;8.97;;;4.93;;
79693;SDS011;69165;52.714;13.200;2023-04-19T05:36:38;14.13;;;5.47;;
79693;SDS011;69165;52.714;13.200;2023-04-19T05:38:39;6.30;;;4.27;;
79693;SDS011;69165;52.714;13.200;2023-04-19T05:40:41;14.90;;;4.93;;
79693;SDS011;69165;52.714;13.200;2023-04-19T05:42:43;5.47;;;3.60;;
79693;SDS011;69165;52.714;13.200;2023-04-19T05:44:44;4.80;;;3.03;;
79693;SDS011;69165;52.714;13.200;2023-04-19T05:46:46;11.67;;;3.67;;
79693;SDS011;69165;52.714;13.200;2023-04-19T05:48:47;8.30;;;4.07;;
79693;SDS011;69165;52.714;13.200;2023-04-19T05:50:49;5.80;;;3.33;;
79693;SDS011;69165;52.714;13.200;2023-04-19T05:52:51;8.50;;;3.10;;
79693;SDS011;69165;52.714;13.200;2023-04-19T05:54:52;4.47;;;2.83;;
79693;SDS011;69165;52.714;13.200;2023-04-19T05:56:54;5.60;;;2.93;;
79693;SDS011;69165;52.714;13.200;2023-04-19T05:58:55;7.60;;;3.07;;
79693;SDS011;69165;52.714;13.200;2023-04-19T06:00:57;3.23;;;2.60;;
79693;SDS011;69165;52.714;13.200;2023-04-19T06:02:59;9.80;;;3.00;;
79693;SDS011;69165;52.714;13.200;2023-04-19T06:05:00;13.90;;;3.00;;
79693;SDS011;69165;52.714;13.200;2023-04-19T06:07:02;6.07;;;2.57;;
79693;SDS011;69165;52.714;13.200;2023-04-19T06:09:04;4.03;;;3.20;;
79693;SDS011;69165;52.714;13.200;2023-04-19T06:11:07;7.80;;;2.77;;
79693;SDS011;69165;52.714;13.200;2023-04-19T06:13:08;7.07;;;3.90;;
79693;SDS011;69165;52.714;13.200;2023-04-19T06:15:10;10.23;;;3.53;;
79693;SDS011;69165;52.714;13.200;2023-04-19T06:17:12;14.67;;;3.70;;
79693;SDS011;69165;52.714;13.200;2023-04-19T06:19:13;6.83;;;3.10;;
79693;SDS011;69165;52.714;13.200;2023-04-19T06:21:16;7.50;;;5.57;;
79693;SDS011;69165;52.714;13.200;2023-04-19T06:23:18;7.47;;;2.87;;
79693;SDS011;69165;52.714;13.200;2023-04-19T06:25:19;3.13;;;2.63;;
79693;SDS011;69165;52.714;13.200;2023-04-19T06:27:21;11.97;;;3.47;;
79693;SDS011;69165;52.714;13.200;2023-04-19T06:29:23;11.27;;;3.90;;
79693;SDS011;69165;52.714;13.200;2023-04-19T06:31:25;7.20;;;3.17;;
79693;SDS011;69165;52.714;13.200;2023-04-19T06:33:27;2.70;;;2.50;;
79693;SDS011;69165;52.714;13.200;2023-04-19T06:35:30;3.97;;;2.87;;
79693;SDS011;69165;52.714;13.200;2023-04-19T06:37:32;18.53;;;2.80;;
79693;SDS011;69165;52.714;13.200;2023-04-19T06:39:33;4.30;;;2.67;;
79693;SDS011;69165;52.714;13.200;2023-04-19T06:41:35;4.67;;;2.40;;
79693;SDS011;69165;52.714;13.200;2023-04-19T06:43:37;7.23;;;3.10;;
79693;SDS011;69165;52.714;13.200;2023-04-19T06:45:39;6.47;;;2.80;;
79693;SDS011;69165;52.714;13.200;2023-04-19T06:47:42;13.70;;;5.10;;
79693;SDS011;69165;52.714;13.200;2023-04-19T06:49:43;15.40;;;4.10;;
79693;SDS011;69165;52.714;13.200;2023-04-19T06:51:45;13.03;;;3.77;;
79693;SDS011;69165;52.714;13.200;2023-04-19T06:53:48;3.20;;;2.90;;
79693;SDS011;69165;52.714;13.200;2023-04-19T06:57:58;11.43;;;2.70;;
79693;SDS011;69165;52.714;13.200;2023-04-19T07:00:00;9.40;;;3.20;;
79693;SDS011;69165;52.714;13.200;2023-04-19T07:02:02;8.47;;;2.17;;
79693;SDS011;69165;52.714;13.200;2023-04-19T07:04:05;2.60;;;2.40;;
79693;SDS011;69165;52.714;13.200;2023-04-19T07:06:07;8.93;;;3.57;;
79693;SDS011;69165;52.714;13.200;2023-04-19T07:08:09;3.00;;;2.40;;
79693;SDS011;69165;52.714;13.200;2023-04-19T07:10:12;6.97;;;2.57;;
79693;SDS011;69165;52.714;13.200;2023-04-19T07:12:14;4.20;;;2.33;;
79693;SDS011;69165;52.714;13.200;2023-04-19T07:14:16;3.43;;;2.40;;
79693;SDS011;69165;52.714;13.200;2023-04-19T07:16:17;2.10;;;2.00;;
79693;SDS011;69165;52.714;13.200;2023-04-19T07:18:19;3.63;;;2.93;;
79693;SDS011;69165;52.714;13.200;2023-04-19T07:20:20;9.87;;;3.00;;
79693;SDS011;69165;52.714;13.200;2023-04-19T07:22:23;7.17;;;3.07;;
79693;SDS011;69165;52.714;13.200;2023-04-19T07:24:25;8.73;;;2.50;;
79693;SDS011;69165;52.714;13.200;2023-04-19T07:26:28;13.50;;;3.17;;
79693;SDS011;69165;52.714;13.200;2023-04-19T07:28:30;13.97;;;2.80;;
79693;SDS011;69165;52.714;13.200;2023-04-19T07:30:32;12.70;;;2.83;;
79693;SDS011;69165;52.714;13.200;2023-04-19T07:32:33;17.97;;;3.73;;
79693;SDS011;69165;52.714;13.200;2023-04-19T07:34:36;7.00;;;2.70;;
79693;SDS011;69165;52.714;13.200;2023-04-19T07:36:37;10.23;;;3.03;;
79693;SDS011;69165;52.714;13.200;2023-04-19T07:38:39;6.40;;;2.50;;
79693;SDS011;69165;52.714;13.200;2023-04-19T07:40:40;9.00;;;3.10;;
79693;SDS011;69165;52.714;13.200;2023-04-19T07:42:43;19.97;;;3.23;;
79693;SDS011;69165;52.714;13.200;2023-04-19T07:44:45;4.70;;;2.43;;
79693;SDS011;69165;52.714;13.200;2023-04-19T07:46:47;9.83;;;3.17;;
79693;SDS011;69165;52.714;13.200;2023-04-19T07:48:48;12.23;;;2.97;;
79693;SDS011;69165;52.714;13.200;2023-04-19T07:50:51;3.27;;;2.73;;
79693;SDS011;69165;52.714;13.200;2023-04-19T07:52:53;9.20;;;2.87;;
79693;SDS011;69165;52.714;13.200;2023-04-19T07:54:55;4.33;;;2.80;;
79693;SDS011;69165;52.714;13.200;2023-04-19T07:56:57;2.70;;;2.50;;
79693;SDS011;69165;52.714;13.200;2023-04-19T07:58:59;3.47;;;2.47;;
79693;SDS011;69165;52.714;13.200;2023-04-19T08:01:00;4.00;;;2.97;;
79693;SDS011;69165;52.714;13.200;2023-04-19T08:03:03;16.37;;;3.13;;
79693;SDS011;69165;52.714;13.200;2023-04-19T08:05:05;13.63;;;2.77;;
79693;SDS011;69165;52.714;13.200;2023-04-19T08:07:07;13.40;;;3.13;;
79693;SDS011;69165;52.714;13.200;2023-04-19T08:09:09;6.30;;;3.00;;
79693;SDS011;69165;52.714;13.200;2023-04-19T08:11:10;10.57;;;3.10;;
79693;SDS011;69165;52.714;13.200;2023-04-19T08:13:12;5.90;;;2.90;;
79693;SDS011;69165;52.714;13.200;2023-04-19T08:15:14;4.73;;;2.90;;
79693;SDS011;69165;52.714;13.200;2023-04-19T08:17:16;6.97;;;3.23;;
79693;SDS011;69165;52.714;13.200;2023-04-19T08:19:18;2.90;;;2.70;;
79693;SDS011;69165;52.714;13.200;2023-04-19T08:21:19;8.00;;;3.13;;
79693;SDS011;69165;52.714;13.200;2023-04-19T08:23:21;9.27;;;3.50;;
79693;SDS011;69165;52.714;13.200;2023-04-19T08:25:22;3.07;;;2.63;;
79693;SDS011;69165;52.714;13.200;2023-04-19T08:27:25;3.40;;;2.97;;
79693;SDS011;69165;52.714;13.200;2023-04-19T08:29:27;8.20;;;3.03;;
79693;SDS011;69165;52.714;13.200;2023-04-19T08:31:28;11.33;;;3.70;;
79693;SDS011;69165;52.714;13.200;2023-04-19T08:33:31;5.00;;;3.33;;
79693;SDS011;69165;52.714;13.200;2023-04-19T08:35:33;6.00;;;3.70;;
79693;SDS011;69165;52.714;13.200;2023-04-19T08:37:35;6.87;;;3.50;;
79693;SDS011;69165;52.714;13.200;2023-04-19T08:39:38;6.33;;;3.23;;
79693;SDS011;69165;52.714;13.200;2023-04-19T08:41:39;4.23;;;3.47;;
79693;SDS011;69165;52.714;13.200;2023-04-19T08:43:41;6.50;;;4.17;;
79693;SDS011;69165;52.714;13.200;2023-04-19T08:45:42;11.70;;;3.70;;
79693;SDS011;69165;52.714;13.200;2023-04-19T08:47:44;4.90;;;3.93;;
79693;SDS011;69165;52.714;13.200;2023-04-19T08:49:46;6.73;;;4.30;;
79693;SDS011;69165;52.714;13.200;2023-04-19T08:51:47;7.30;;;3.77;;
79693;SDS011;69165;52.714;13.200;2023-04-19T08:53:49;5.20;;;3.23;;
79693;SDS011;69165;52.714;13.200;2023-04-19T08:55:51;8.40;;;3.70;;
79693;SDS011;69165;52.714;13.200;2023-04-19T08:57:54;4.10;;;3.70;;
79693;SDS011;69165;52.714;13.200;2023-04-19T08:59:55;10.40;;;4.30;;
79693;SDS011;69165;52.714;13.200;2023-04-19T09:02:00;4.50;;;3.30;;
79693;SDS011;69165;52.714;13.200;2023-04-19T09:04:03;7.20;;;3.57;;
79693;SDS011;69165;52.714;13.200;2023-04-19T09:06:04;8.90;;;3.40;;
79693;SDS011;69165;52.714;13.200;2023-04-19T09:10:20;5.97;;;3.40;;
79693;SDS011;69165;52.714;13.200;2023-04-19T09:12:22;6.73;;;4.07;;
79693;SDS011;69165;52.714;13.200;2023-04-19T09:14:25;3.13;;;2.80;;
79693;SDS011;69165;52.714;13.200;2023-04-19T09:16:27;17.23;;;4.60;;
79693;SDS011;69165;52.714;13.200;2023-04-19T09:18:29;7.87;;;4.00;;
79693;SDS011;69165;52.714;13.200;2023-04-19T09:20:36;5.40;;;4.23;;
79693;SDS011;69165;52.714;13.200;2023-04-19T09:22:39;6.13;;;3.40;;
79693;SDS011;69165;52.714;13.200;2023-04-19T09:24:41;8.33;;;3.23;;
79693;SDS011;69165;52.714;13.200;2023-04-19T09:26:52;8.07;;;3.93;;
79693;SDS011;69165;52.714;13.200;2023-04-19T09:28:55;20.83;;;4.10;;
79693;SDS011;69165;52.714;13.200;2023-04-19T09:30:59;5.50;;;4.10;;
79693;SDS011;69165;52.714;13.200;2023-04-19T09:33:00;4.40;;;3.07;;
79693;SDS011;69165;52.714;13.200;2023-04-19T09:35:03;7.43;;;3.70;;
79693;SDS011;69165;52.714;13.200;2023-04-19T09:37:11;9.37;;;3.30;;
79693;SDS011;69165;52.714;13.200;2023-04-19T09:39:13;10.80;;;4.40;;
79693;SDS011;69165;52.714;13.200;2023-04-19T09:41:15;7.03;;;4.30;;
79693;SDS011;69165;52.714;13.200;2023-04-19T09:43:22;8.20;;;3.67;;
79693;SDS011;69165;52.714;13.200;2023-04-19T09:45:23;11.17;;;4.00;;
79693;SDS011;69165;52.714;13.200;2023-04-19T09:47:26;6.30;;;3.30;;
79693;SDS011;69165;52.714;13.200;2023-04-19T09:49:27;4.20;;;3.37;;
79693;SDS011;69165;52.714;13.200;2023-04-19T09:51:39;19.03;;;3.60;;
79693;SDS011;69165;52.714;13.200;2023-04-19T09:53:39;9.23;;;3.63;;
79693;SDS011;69165;52.714;13.200;2023-04-19T09:55:41;3.83;;;3.43;;
79693;SDS011;69165;52.714;13.200;2023-04-19T09:57:44;11.00;;;4.90;;
79693;SDS011;69165;52.714;13.200;2023-04-19T09:59:46;8.20;;;4.07;;
79693;SDS011;69165;52.714;13.200;2023-04-19T10:01:53;6.40;;;3.50;;
79693;SDS011;69165;52.714;13.200;2023-04-19T10:03:54;4.83;;;3.50;;
79693;SDS011;69165;52.714;13.200;2023-04-19T10:05:56;10.10;;;3.80;;
79693;SDS011;69165;52.714;13.200;2023-04-19T10:07:58;5.90;;;4.07;;
79693;SDS011;69165;52.714;13.200;2023-04-19T10:09:59;8.60;;;3.83;;
79693;SDS011;69165;52.714;13.200;2023-04-19T10:12:01;6.93;;;3.83;;
79693;SDS011;69165;52.714;13.200;2023-04-19T10:14:04;8.57;;;3.93;;
79693;SDS011;69165;52.714;13.200;2023-04-19T10:16:06;8.50;;;3.43;;
79693;SDS011;69165;52.714;13.200;2023-04-19T10:18:07;8.73;;;4.80;;
79693;SDS011;69165;52.714;13.200;2023-04-19T10:20:09;6.17;;;4.00;;
79693;SDS011;69165;52.714;13.200;2023-04-19T10:22:12;7.30;;;4.17;;
79693;SDS011;69165;52.714;13.200;2023-04-19T10:24:14;4.60;;;3.43;;
79693;SDS011;69165;52.714;13.200;2023-04-19T10:26:16;4.37;;;3.40;;
79693;SDS011;69165;52.714;13.200;2023-04-19T10:28:17;5.37;;;3.70;;
79693;SDS011;69165;52.714;13.200;2023-04-19T10:30:21;9.37;;;4.57;;
79693;SDS011;69165;52.714;13.200;2023-04-19T10:32:23;22.13;;;5.30;;
79693;SDS011;69165;52.714;13.200;2023-04-19T10:36:37;7.97;;;3.87;;
79693;SDS011;69165;52.714;13.200;2023-04-19T10:38:40;6.93;;;4.10;;
79693;SDS011;69165;52.714;13.200;2023-04-19T10:40:57;8.27;;;3.90;;
79693;SDS011;69165;52.714;13.200;2023-04-19T10:49:44;4.13;;;3.73;;
79693;SDS011;69165;52.714;13.200;2023-04-19T10:51:48;6.37;;;4.33;;
79693;SDS011;69165;52.714;13.200;2023-04-19T10:53:51;9.73;;;4.20;;
79693;SDS011;69165;52.714;13.200;2023-04-19T10:56:07;5.63;;;3.50;;
79693;SDS011;69165;52.714;13.200;2023-04-19T10:58:09;10.17;;;4.03;;
79693;SDS011;69165;52.714;13.200;2023-04-19T11:00:21;11.70;;;4.37;;
79693;SDS011;69165;52.714;13.200;2023-04-19T11:02:26;8.73;;;4.73;;
79693;SDS011;69165;52.714;13.200;2023-04-19T11:05:00;14.10;;;4.07;;
79693;SDS011;69165;52.714;13.200;2023-04-19T11:07:05;8.90;;;4.40;;
79693;SDS011;69165;52.714;13.200;2023-04-19T11:09:07;24.00;;;4.37;;
79693;SDS011;69165;52.714;13.200;2023-04-19T11:11:09;12.00;;;4.47;;
79693;SDS011;69165;52.714;13.200;2023-04-19T11:13:11;9.13;;;3.80;;
79693;SDS011;69165;52.714;13.200;2023-04-19T11:15:13;6.03;;;3.90;;
79693;SDS011;69165;52.714;13.200;2023-04-19T11:17:18;5.87;;;3.70;;
79693;SDS011;69165;52.714;13.200;2023-04-19T11:19:20;9.43;;;3.87;;
79693;SDS011;69165;52.714;13.200;2023-04-19T11:21:22;8.33;;;4.20;;
79693;SDS011;69165;52.714;13.200;2023-04-19T11:23:24;5.83;;;3.40;;
79693;SDS011;69165;52.714;13.200;2023-04-19T11:25:26;8.83;;;4.00;;
79693;SDS011;69165;52.714;13.200;2023-04-19T11:27:28;8.70;;;4.63;;
79693;SDS011;69165;52.714;13.200;2023-04-19T11:29:30;16.97;;;5.00;;
79693;SDS011;69165;52.714;13.200;2023-04-19T11:31:32;6.20;;;4.00;;
79693;SDS011;69165;52.714;13.200;2023-04-19T11:33:35;6.13;;;4.17;;
79693;SDS011;69165;52.714;13.200;2023-04-19T11:35:37;10.33;;;5.10;;
79693;SDS011;69165;52.714;13.200;2023-04-19T11:37:38;11.87;;;4.37;;
79693;SDS011;69165;52.714;13.200;2023-04-19T11:39:44;12.53;;;5.03;;
79693;SDS011;69165;52.714;13.200;2023-04-19T11:41:45;21.00;;;5.00;;
79693;SDS011;69165;52.714;13.200;2023-04-19T11:43:47;8.03;;;5.07;;
79693;SDS011;69165;52.714;13.200;2023-04-19T11:45:49;7.63;;;4.67;;
79693;SDS011;69165;52.714;13.200;2023-04-19T11:47:51;22.23;;;5.73;;
79693;SDS011;69165;52.714;13.200;2023-04-19T11:49:53;6.07;;;4.17;;
79693;SDS011;69165;52.714;13.200;2023-04-19T11:51:56;4.37;;;4.03;;
79693;SDS011;69165;52.714;13.200;2023-04-19T11:54:01;4.87;;;3.80;;
79693;SDS011;69165;52.714;13.200;2023-04-19T11:56:04;17.47;;;5.67;;
79693;SDS011;69165;52.714;13.200;2023-04-19T11:58:06;9.80;;;4.50;;
79693;SDS011;69165;52.714;13.200;2023-04-19T12:00:08;8.17;;;5.40;;
79693;SDS011;69165;52.714;13.200;2023-04-19T12:02:11;13.63;;;5.20;;
79693;SDS011;69165;52.714;13.200;2023-04-19T12:04:13;11.37;;;4.70;;
79693;SDS011;69165;52.714;13.200;2023-04-19T12:06:17;10.37;;;5.33;;
79693;SDS011;69165;52.714;13.200;2023-04-19T12:08:29;8.70;;;4.70;;
79693;SDS011;69165;52.714;13.200;2023-04-19T12:10:33;14.83;;;6.17;;
79693;SDS011;69165;52.714;13.200;2023-04-19T12:12:35;31.93;;;7.23;;
79693;SDS011;69165;52.714;13.200;2023-04-19T12:14:36;8.07;;;5.20;;
79693;SDS011;69165;52.714;13.200;2023-04-19T12:16:39;15.93;;;5.00;;
79693;SDS011;69165;52.714;13.200;2023-04-19T12:18:42;13.17;;;5.43;;
79693;SDS011;69165;52.714;13.200;2023-04-19T12:20:46;14.73;;;5.97;;
79693;SDS011;69165;52.714;13.200;2023-04-19T12:22:47;10.53;;;4.70;;
79693;SDS011;69165;52.714;13.200;2023-04-19T12:24:50;14.63;;;5.30;;
79693;SDS011;69165;52.714;13.200;2023-04-19T12:26:53;30.17;;;5.90;;
79693;SDS011;69165;52.714;13.200;2023-04-19T12:28:54;11.67;;;4.90;;
79693;SDS011;69165;52.714;13.200;2023-04-19T12:30:55;11.27;;;5.50;;
79693;SDS011;69165;52.714;13.200;2023-04-19T12:32:57;11.90;;;5.27;;
79693;SDS011;69165;52.714;13.200;2023-04-19T12:34:58;13.47;;;5.80;;
79693;SDS011;69165;52.714;13.200;2023-04-19T12:37:01;13.40;;;5.33;;
79693;SDS011;69165;52.714;13.200;2023-04-19T12:39:02;27.57;;;6.00;;
79693;SDS011;69165;52.714;13.200;2023-04-19T12:41:05;10.67;;;5.77;;
79693;SDS011;69165;52.714;13.200;2023-04-19T12:43:07;8.47;;;5.90;;
79693;SDS011;69165;52.714;13.200;2023-04-19T12:45:09;20.37;;;5.40;;
79693;SDS011;69165;52.714;13.200;2023-04-19T12:47:11;7.90;;;5.30;;
79693;SDS011;69165;52.714;13.200;2023-04-19T12:49:13;7.43;;;4.23;;
79693;SDS011;69165;52.714;13.200;2023-04-19T12:51:14;22.77;;;6.03;;
79693;SDS011;69165;52.714;13.200;2023-04-19T12:53:16;9.40;;;4.63;;
79693;SDS011;69165;52.714;13.200;2023-04-19T12:55:18;22.30;;;4.57;;
79693;SDS011;69165;52.714;13.200;2023-04-19T12:57:20;8.20;;;4.30;;
79693;SDS011;69165;52.714;13.200;2023-04-19T12:59:22;15.00;;;4.20;;
79693;SDS011;69165;52.714;13.200;2023-04-19T13:01:23;5.43;;;4.63;;
79693;SDS011;69165;52.714;13.200;2023-04-19T13:03:25;30.77;;;6.00;;
79693;SDS011;69165;52.714;13.200;2023-04-19T13:05:27;10.57;;;4.90;;
79693;SDS011;69165;52.714;13.200;2023-04-19T13:07:29;15.30;;;5.17;;
79693;SDS011;69165;52.714;13.200;2023-04-19T13:09:32;11.93;;;5.03;;
79693;SDS011;69165;52.714;13.200;2023-04-19T13:11:33;12.70;;;4.37;;
79693;SDS011;69165;52.714;13.200;2023-04-19T13:13:35;9.93;;;5.47;;
79693;SDS011;69165;52.714;13.200;2023-04-19T13:15:37;15.20;;;5.40;;
79693;SDS011;69165;52.714;13.200;2023-04-19T13:17:38;8.43;;;4.90;;
79693;SDS011;69165;52.714;13.200;2023-04-19T13:19:40;12.33;;;5.60;;
79693;SDS011;69165;52.714;13.200;2023-04-19T13:21:42;10.00;;;5.60;;
79693;SDS011;69165;52.714;13.200;2023-04-19T13:23:44;14.10;;;5.83;;
79693;SDS011;69165;52.714;13.200;2023-04-19T13:25:45;12.93;;;4.63;;
79693;SDS011;69165;52.714;13.200;2023-04-19T13:27:47;13.30;;;5.43;;
79693;SDS011;69165;52.714;13.200;2023-04-19T13:29:49;11.17;;;5.13;;
79693;SDS011;69165;52.714;13.200;2023-04-19T13:31:51;10.83;;;4.93;;
79693;SDS011;69165;52.714;13.200;2023-04-19T13:33:53;10.97;;;5.40;;
79693;SDS011;69165;52.714;13.200;2023-04-19T13:35:56;20.67;;;5.87;;
79693;SDS011;69165;52.714;13.200;2023-04-19T13:37:58;15.73;;;6.40;;
79693;SDS011;69165;52.714;13.200;2023-04-19T13:40:00;14.87;;;6.80;;
79693;SDS011;69165;52.714;13.200;2023-04-19T13:42:01;28.60;;;6.83;;
79693;SDS011;69165;52.714;13.200;2023-04-19T13:44:03;14.53;;;5.90;;
79693;SDS011;69165;52.714;13.200;2023-04-19T13:46:05;17.73;;;6.40;;
79693;SDS011;69165;52.714;13.200;2023-04-19T13:48:06;23.17;;;5.60;;
79693;SDS011;69165;52.714;13.200;2023-04-19T13:50:08;10.70;;;6.00;;
79693;SDS011;69165;52.714;13.200;2023-04-19T13:52:10;16.40;;;5.63;;
79693;SDS011;69165;52.714;13.200;2023-04-19T13:54:11;19.90;;;5.80;;
79693;SDS011;69165;52.714;13.200;2023-04-19T13:56:13;15.40;;;6.27;;
79693;SDS011;69165;52.714;13.200;2023-04-19T13:58:15;11.17;;;5.50;;
79693;SDS011;69165;52.714;13.200;2023-04-19T14:00:17;13.20;;;6.60;;
79693;SDS011;69165;52.714;13.200;2023-04-19T14:02:20;9.57;;;6.33;;
79693;SDS011;69165;52.714;13.200;2023-04-19T14:04:21;11.93;;;5.40;;
79693;SDS011;69165;52.714;13.200;2023-04-19T14:06:23;12.50;;;5.80;;
79693;SDS011;69165;52.714;13.200;2023-04-19T14:08:25;11.83;;;5.53;;
79693;SDS011;69165;52.714;13.200;2023-04-19T14:10:27;21.73;;;6.13;;
79693;SDS011;69165;52.714;13.200;2023-04-19T14:12:28;13.63;;;6.90;;
79693;SDS011;69165;52.714;13.200;2023-04-19T14:14:30;7.63;;;5.60;;
79693;SDS011;69165;52.714;13.200;2023-04-19T14:16:31;30.37;;;6.23;;
79693;SDS011;69165;52.714;13.200;2023-04-19T14:18:33;11.73;;;5.80;;
79693;SDS011;69165;52.714;13.200;2023-04-19T14:20:35;23.73;;;6.70;;
79693;SDS011;69165;52.714;13.200;2023-04-19T14:22:37;17.07;;;5.83;;
79693;SDS011;69165;52.714;13.200;2023-04-19T14:24:39;14.73;;;6.10;;
79693;SDS011;69165;52.714;13.200;2023-04-19T14:26:41;12.20;;;5.77;;
79693;SDS011;69165;52.714;13.200;2023-04-19T14:28:43;15.73;;;7.10;;
79693;SDS011;69165;52.714;13.200;2023-04-19T14:30:44;18.63;;;5.93;;
79693;SDS011;69165;52.714;13.200;2023-04-19T14:32:46;20.17;;;6.63;;
79693;SDS011;69165;52.714;13.200;2023-04-19T14:34:47;25.57;;;6.73;;
79693;SDS011;69165;52.714;13.200;2023-04-19T14:36:49;14.93;;;7.00;;
79693;SDS011;69165;52.714;13.200;2023-04-19T14:38:51;24.40;;;7.13;;
79693;SDS011;69165;52.714;13.200;2023-04-19T14:40:53;15.80;;;5.93;;
79693;SDS011;69165;52.714;13.200;2023-04-19T14:42:55;19.87;;;6.57;;
79693;SDS011;69165;52.714;13.200;2023-04-19T14:44:56;17.67;;;7.10;;
79693;SDS011;69165;52.714;13.200;2023-04-19T14:46:58;13.27;;;6.67;;
79693;SDS011;69165;52.714;13.200;2023-04-19T14:48:59;13.13;;;6.37;;
79693;SDS011;69165;52.714;13.200;2023-04-19T14:51:01;22.40;;;7.30;;
79693;SDS011;69165;52.714;13.200;2023-04-19T14:53:03;14.73;;;7.20;;
79693;SDS011;69165;52.714;13.200;2023-04-19T14:55:05;18.87;;;7.17;;
79693;SDS011;69165;52.714;13.200;2023-04-19T14:57:07;23.40;;;9.10;;
79693;SDS011;69165;52.714;13.200;2023-04-19T14:59:08;27.50;;;8.80;;
79693;SDS011;69165;52.714;13.200;2023-04-19T15:01:11;20.07;;;8.13;;
79693;SDS011;69165;52.714;13.200;2023-04-19T15:03:14;25.90;;;6.83;;
79693;SDS011;69165;52.714;13.200;2023-04-19T15:05:16;25.33;;;9.00;;
79693;SDS011;69165;52.714;13.200;2023-04-19T15:07:17;19.93;;;8.97;;
79693;SDS011;69165;52.714;13.200;2023-04-19T15:09:20;26.60;;;8.40;;
79693;SDS011;69165;52.714;13.200;2023-04-19T15:11:21;25.13;;;8.30;;
79693;SDS011;69165;52.714;13.200;2023-04-19T15:13:23;19.63;;;8.13;;
79693;SDS011;69165;52.714;13.200;2023-04-19T15:15:24;20.47;;;7.50;;
79693;SDS011;69165;52.714;13.200;2023-04-19T15:17:26;20.10;;;8.93;;
79693;SDS011;69165;52.714;13.200;2023-04-19T15:19:29;20.63;;;10.63;;
79693;SDS011;69165;52.714;13.200;2023-04-19T15:21:30;27.90;;;8.57;;
79693;SDS011;69165;52.714;13.200;2023-04-19T15:23:32;24.20;;;7.90;;
79693;SDS011;69165;52.714;13.200;2023-04-19T15:25:35;19.47;;;8.50;;
79693;SDS011;69165;52.714;13.200;2023-04-19T15:27:36;18.50;;;7.40;;
79693;SDS011;69165;52.714;13.200;2023-04-19T15:29:38;20.00;;;7.97;;
79693;SDS011;69165;52.714;13.200;2023-04-19T15:31:40;26.90;;;7.50;;
79693;SDS011;69165;52.714;13.200;2023-04-19T15:33:42;16.00;;;7.70;;
79693;SDS011;69165;52.714;13.200;2023-04-19T15:35:44;21.53;;;8.57;;
79693;SDS011;69165;52.714;13.200;2023-04-19T15:37:46;23.77;;;7.63;;
79693;SDS011;69165;52.714;13.200;2023-04-19T15:39:48;11.07;;;6.03;;
79693;SDS011;69165;52.714;13.200;2023-04-19T15:41:50;16.23;;;6.80;;
79693;SDS011;69165;52.714;13.200;2023-04-19T15:43:51;23.40;;;8.13;;
79693;SDS011;69165;52.714;13.200;2023-04-19T15:45:53;34.10;;;8.13;;
79693;SDS011;69165;52.714;13.200;2023-04-19T15:47:55;20.57;;;9.57;;
79693;SDS011;69165;52.714;13.200;2023-04-19T15:49:58;23.57;;;8.50;;
79693;SDS011;69165;52.714;13.200;2023-04-19T15:51:59;28.63;;;11.27;;
79693;SDS011;69165;52.714;13.200;2023-04-19T15:54:01;37.63;;;9.40;;
79693;SDS011;69165;52.714;13.200;2023-04-19T15:56:03;25.10;;;9.90;;
79693;SDS011;69165;52.714;13.200;2023-04-19T15:58:06;27.33;;;8.97;;
79693;SDS011;69165;52.714;13.200;2023-04-19T16:00:08;19.13;;;8.03;;
79693;SDS011;69165;52.714;13.200;2023-04-19T16:02:10;25.33;;;8.73;;
79693;SDS011;69165;52.714;13.200;2023-04-19T16:04:12;18.77;;;7.70;;
79693;SDS011;69165;52.714;13.200;2023-04-19T16:06:13;20.60;;;8.50;;
79693;SDS011;69165;52.714;13.200;2023-04-19T16:08:15;17.70;;;7.53;;
79693;SDS011;69165;52.714;13.200;2023-04-19T16:10:17;18.37;;;7.20;;
79693;SDS011;69165;52.714;13.200;2023-04-19T16:12:20;23.43;;;7.00;;
79693;SDS011;69165;52.714;13.200;2023-04-19T16:14:22;27.93;;;7.60;;
79693;SDS011;69165;52.714;13.200;2023-04-19T16:16:23;18.53;;;8.23;;
79693;SDS011;69165;52.714;13.200;2023-04-19T16:18:25;24.07;;;7.00;;
79693;SDS011;69165;52.714;13.200;2023-04-19T16:20:26;13.23;;;6.77;;
79693;SDS011;69165;52.714;13.200;2023-04-19T16:22:28;16.57;;;7.50;;
79693;SDS011;69165;52.714;13.200;2023-04-19T16:24:30;15.47;;;7.60;;
79693;SDS011;69165;52.714;13.200;2023-04-19T16:26:32;24.57;;;7.33;;
79693;SDS011;69165;52.714;13.200;2023-04-19T16:28:33;13.53;;;6.90;;
79693;SDS011;69165;52.714;13.200;2023-04-19T16:30:36;32.07;;;7.07;;
79693;SDS011;69165;52.714;13.200;2023-04-19T16:32:37;19.50;;;8.80;;
79693;SDS011;69165;52.714;13.200;2023-04-19T16:34:39;34.70;;;8.43;;
79693;SDS011;69165;52.714;13.200;2023-04-19T16:36:40;15.90;;;7.40;;
79693;SDS011;69165;52.714;13.200;2023-04-19T16:38:42;15.53;;;6.40;;
79693;SDS011;69165;52.714;13.200;2023-04-19T16:40:44;21.53;;;7.80;;
79693;SDS011;69165;52.714;13.200;2023-04-19T16:42:45;37.40;;;7.20;;
79693;SDS011;69165;52.714;13.200;2023-04-19T16:44:47;26.00;;;7.17;;
79693;SDS011;69165;52.714;13.200;2023-04-19T16:46:48;16.90;;;6.33;;
79693;SDS011;69165;52.714;13.200;2023-04-19T16:48:50;23.93;;;6.80;;
79693;SDS011;69165;52.714;13.200;2023-04-19T16:50:52;24.30;;;7.53;;
79693;SDS011;69165;52.714;13.200;2023-04-19T16:52:55;18.97;;;7.00;;
79693;SDS011;69165;52.714;13.200;2023-04-19T16:54:56;27.07;;;7.80;;
79693;SDS011;69165;52.714;13.200;2023-04-19T16:56:58;28.37;;;8.03;;
79693;SDS011;69165;52.714;13.200;2023-04-19T16:59:00;28.97;;;9.00;;
79693;SDS011;69165;52.714;13.200;2023-04-19T17:01:01;15.43;;;8.93;;
79693;SDS011;69165;52.714;13.200;2023-04-19T17:03:04;23.70;;;8.83;;
79693;SDS011;69165;52.714;13.200;2023-04-19T17:05:05;27.57;;;9.10;;
79693;SDS011;69165;52.714;13.200;2023-04-19T17:07:07;37.63;;;8.23;;
79693;SDS011;69165;52.714;13.200;2023-04-19T17:09:09;32.30;;;9.53;;
79693;SDS011;69165;52.714;13.200;2023-04-19T17:11:10;23.23;;;8.97;;
79693;SDS011;69165;52.714;13.200;2023-04-19T17:13:12;19.97;;;8.40;;
79693;SDS011;69165;52.714;13.200;2023-04-19T17:15:14;27.70;;;9.23;;